Time;durP1;ratioP1;P1;durP2;ratioP2;P2;SDS_P1;SDS_P2;PMS_P1;PMS_P2;Temp;Humidity;BMP_temperature;BMP_pressure;BME280_temperature;BME280_humidity;BME280_pressure;Samples;Min_cycle;Max_cycle;Signal;HPM_P1;HPM_P2
2024/01/03 00:00:27;;;;;;;13.98;13.00;;;10.30;99.90;;;;;;5016251;28;20092;-78
2024/01/03 00:02:55;;;;;;;14.40;13.45;;;10.30;99.90;;;;;;5015630;28;20041;-79
2024/01/03 00:05:37;;;;;;;14.90;13.40;;;10.30;99.90;;;;;;5017617;28;20689;-79
2024/01/03 00:08:09;;;;;;;14.75;13.43;;;10.30;99.90;;;;;;5038566;28;20068;-78
2024/01/03 00:10:41;;;;;;;16.65;15.05;;;10.20;99.90;;;;;;5017604;28;20519;-79
2024/01/03 00:13:30;;;;;;;15.63;14.02;;;10.10;99.90;;;;;;5016727;28;20045;-78
2024/01/03 00:16:00;;;;;;;14.98;13.85;;;10.10;99.90;;;;;;5035465;28;20055;-78
2024/01/03 00:18:43;;;;;;;16.70;15.07;;;10.20;99.90;;;;;;5019910;28;20038;-78
2024/01/03 00:21:17;;;;;;;15.65;14.13;;;10.20;99.90;;;;;;5025068;28;20049;-78
2024/01/03 00:23:49;;;;;;;14.80;13.98;;;10.20;99.90;;;;;;5023801;28;20840;-78
2024/01/03 00:26:16;;;;;;;14.98;14.05;;;10.20;99.90;;;;;;5023763;28;20055;-79
2024/01/03 00:28:45;;;;;;;14.43;13.52;;;10.30;99.90;;;;;;4994667;28;20056;-78
2024/01/03 00:31:35;;;;;;;14.60;13.43;;;10.30;99.90;;;;;;4997659;28;20042;-78
2024/01/03 00:34:22;;;;;;;15.55;14.32;;;10.20;99.90;;;;;;5011642;28;20049;-78
2024/01/03 00:36:53;;;;;;;15.13;13.93;;;10.10;99.90;;;;;;5006924;28;20057;-79
2024/01/03 00:39:33;;;;;;;14.80;14.00;;;10.20;99.90;;;;;;5014569;28;20041;-79
2024/01/03 00:42:00;;;;;;;14.10;13.20;;;10.10;99.90;;;;;;5020868;28;20056;-79
2024/01/03 00:44:27;;;;;;;14.98;13.77;;;10.10;99.90;;;;;;5022483;28;20097;-79
2024/01/03 00:46:56;;;;;;;15.55;14.00;;;10.10;99.90;;;;;;5042203;28;20045;-78
2024/01/03 00:49:24;;;;;;;17.77;14.07;;;10.10;99.90;;;;;;5047864;28;20126;-78
2024/01/03 00:51:52;;;;;;;16.38;14.63;;;10.10;99.90;;;;;;5032341;28;20045;-78
2024/01/03 00:54:21;;;;;;;15.68;14.35;;;10.10;99.90;;;;;;5028172;28;20095;-78
2024/01/03 00:56:49;;;;;;;15.27;14.10;;;10.10;99.90;;;;;;5028220;28;20053;-78
2024/01/03 00:59:17;;;;;;;17.27;15.52;;;10.10;99.90;;;;;;5013111;28;20045;-78
2024/01/03 01:01:44;;;;;;;16.52;14.75;;;10.20;99.90;;;;;;5002823;28;20069;-78
2024/01/03 01:04:13;;;;;;;19.60;15.43;;;10.20;99.90;;;;;;5019144;28;20112;-79
2024/01/03 01:06:41;;;;;;;17.17;14.93;;;10.20;99.90;;;;;;5017129;28;20466;-79
2024/01/03 01:09:08;;;;;;;17.63;14.70;;;10.20;99.90;;;;;;5032462;28;20036;-78
2024/01/03 01:11:36;;;;;;;18.23;14.88;;;10.20;99.90;;;;;;5020186;28;20068;-78
2024/01/03 01:14:03;;;;;;;18.02;15.57;;;10.30;99.90;;;;;;5014445;28;20500;-78
2024/01/03 01:16:30;;;;;;;20.27;14.45;;;10.20;99.90;;;;;;5019289;28;20045;-78
2024/01/03 01:18:56;;;;;;;15.95;14.27;;;10.10;99.90;;;;;;5026147;28;20056;-78
2024/01/03 01:21:23;;;;;;;22.35;14.10;;;10.10;99.90;;;;;;5026800;28;20062;-79
2024/01/03 01:23:50;;;;;;;21.42;13.73;;;9.80;99.90;;;;;;5005844;28;20582;-79
2024/01/03 01:26:17;;;;;;;13.98;12.70;;;9.60;99.90;;;;;;5045230;28;20040;-79
2024/01/03 01:28:44;;;;;;;16.95;12.80;;;9.50;99.90;;;;;;5016973;28;20053;-78
2024/01/03 01:31:10;;;;;;;16.58;14.13;;;9.50;99.90;;;;;;5009389;28;20037;-78
2024/01/03 01:33:37;;;;;;;23.60;13.93;;;9.50;99.90;;;;;;5020884;28;20044;-79
2024/01/03 01:36:04;;;;;;;15.75;13.80;;;9.60;99.90;;;;;;5020901;28;20042;-79
2024/01/03 01:38:31;;;;;;;15.43;13.80;;;9.70;99.90;;;;;;5017769;28;20046;-80
2024/01/03 01:40:58;;;;;;;18.35;12.90;;;9.80;99.90;;;;;;5034540;28;20128;-78
2024/01/03 01:43:25;;;;;;;21.83;12.82;;;9.80;99.90;;;;;;5014545;28;20661;-79
2024/01/03 01:45:52;;;;;;;15.45;11.75;;;9.70;99.90;;;;;;5014409;28;20054;-79
2024/01/03 01:48:19;;;;;;;12.50;11.20;;;9.60;99.90;;;;;;5036876;28;20120;-78
2024/01/03 01:50:46;;;;;;;17.30;10.38;;;9.50;99.90;;;;;;5004096;28;20061;-78
2024/01/03 01:53:14;;;;;;;11.23;10.23;;;9.40;99.90;;;;;;5018648;28;20073;-80
2024/01/03 01:55:41;;;;;;;15.38;10.43;;;9.30;99.90;;;;;;5014680;28;20040;-78
2024/01/03 01:58:09;;;;;;;12.93;10.23;;;9.40;99.90;;;;;;5034425;28;20488;-79
2024/01/03 02:00:38;;;;;;;20.27;12.07;;;9.30;99.90;;;;;;5024628;28;20055;-79
2024/01/03 02:03:07;;;;;;;14.90;11.48;;;9.40;99.90;;;;;;5022734;28;20059;-79
2024/01/03 02:05:37;;;;;;;15.68;12.85;;;9.40;99.90;;;;;;5011731;28;20091;-80
2024/01/03 02:08:08;;;;;;;17.63;11.35;;;9.40;99.90;;;;;;5032487;28;20037;-79
2024/01/03 02:10:35;;;;;;;20.17;13.15;;;9.40;99.90;;;;;;5038151;28;20042;-79
2024/01/03 02:13:02;;;;;;;24.58;12.95;;;9.50;99.90;;;;;;5037391;28;20048;-79
2024/01/03 02:15:29;;;;;;;13.50;12.23;;;9.50;99.90;;;;;;5019240;28;20040;-79
2024/01/03 02:17:56;;;;;;;15.98;12.75;;;9.50;99.90;;;;;;5038484;28;20045;-81
2024/01/03 02:20:25;;;;;;;15.60;13.95;;;9.60;99.90;;;;;;5040044;28;20060;-80
2024/01/03 02:22:52;;;;;;;16.98;13.45;;;9.70;99.90;;;;;;5039199;28;20064;-80
2024/01/03 02:25:19;;;;;;;15.20;13.73;;;9.70;99.90;;;;;;5029600;28;20756;-80
2024/01/03 02:27:46;;;;;;;14.77;13.35;;;9.70;99.90;;;;;;4988580;28;20063;-79
2024/01/03 02:30:12;;;;;;;18.17;13.50;;;9.70;99.90;;;;;;5016860;28;20033;-80
2024/01/03 02:32:39;;;;;;;17.73;13.48;;;9.80;99.90;;;;;;5027875;28;20046;-81
2024/01/03 02:35:06;;;;;;;15.00;13.68;;;9.80;99.90;;;;;;5005951;28;20052;-79
2024/01/03 02:37:34;;;;;;;14.20;13.25;;;9.90;99.90;;;;;;5031634;28;20709;-80
2024/01/03 02:40:00;;;;;;;14.82;13.75;;;9.90;99.90;;;;;;5060261;28;20173;-79
2024/01/03 02:42:27;;;;;;;14.90;13.77;;;9.90;99.90;;;;;;5023065;28;20178;-78
2024/01/03 02:44:54;;;;;;;14.63;13.30;;;9.80;99.90;;;;;;5029315;28;20625;-78
2024/01/03 02:47:21;;;;;;;14.00;13.10;;;9.80;99.90;;;;;;5031837;28;20787;-80
2024/01/03 02:49:48;;;;;;;13.77;12.90;;;9.80;99.90;;;;;;5030516;28;20674;-80
2024/01/03 02:52:15;;;;;;;13.10;12.13;;;9.70;99.90;;;;;;5042322;28;20033;-79
2024/01/03 02:54:42;;;;;;;14.98;13.70;;;9.70;99.90;;;;;;5025056;28;20130;-79
2024/01/03 02:57:08;;;;;;;13.52;12.25;;;9.70;99.90;;;;;;5041367;28;20033;-79
2024/01/03 02:59:35;;;;;;;15.98;14.45;;;9.70;99.90;;;;;;5032262;28;20107;-81
2024/01/03 03:02:02;;;;;;;14.75;13.20;;;9.70;99.90;;;;;;5031489;28;20051;-79
2024/01/03 03:04:29;;;;;;;14.02;13.00;;;9.70;99.90;;;;;;5006966;28;20068;-78
2024/01/03 03:06:55;;;;;;;14.93;13.45;;;9.70;99.90;;;;;;5039591;28;20069;-79
2024/01/03 03:09:22;;;;;;;15.90;14.35;;;9.70;99.90;;;;;;5033437;28;20045;-79
2024/01/03 03:11:49;;;;;;;15.60;14.20;;;9.80;99.90;;;;;;5034636;28;20068;-79
2024/01/03 03:14:16;;;;;;;18.77;14.93;;;9.80;99.90;;;;;;5036884;28;20132;-80
2024/01/03 03:16:43;;;;;;;18.95;13.80;;;9.70;99.90;;;;;;5034140;28;20140;-80
2024/01/03 03:19:10;;;;;;;14.35;13.27;;;9.70;99.90;;;;;;5000780;28;20051;-80
2024/01/03 03:21:37;;;;;;;21.10;14.23;;;9.70;99.90;;;;;;5005457;28;20435;-79
2024/01/03 03:24:04;;;;;;;15.82;14.43;;;9.80;99.90;;;;;;5021322;28;20041;-78
2024/01/03 03:26:31;;;;;;;16.48;14.80;;;9.80;99.90;;;;;;5033116;28;20136;-80
2024/01/03 03:28:57;;;;;;;15.32;13.90;;;9.80;99.90;;;;;;5032168;28;20140;-79
2024/01/03 03:31:24;;;;;;;15.50;14.25;;;9.90;99.90;;;;;;5064322;28;20569;-80
2024/01/03 03:33:51;;;;;;;16.90;14.95;;;9.90;99.90;;;;;;5024381;28;20049;-78
2024/01/03 03:36:20;;;;;;;17.05;15.35;;;9.90;99.90;;;;;;5028398;28;20589;-79
2024/01/03 03:38:47;;;;;;;17.85;14.52;;;9.80;99.90;;;;;;5025693;28;20056;-79
2024/01/03 03:41:14;;;;;;;18.10;14.68;;;9.90;99.90;;;;;;5042294;28;20078;-80
2024/01/03 03:43:41;;;;;;;16.70;15.05;;;9.80;99.90;;;;;;5029863;28;20147;-79
2024/01/03 03:46:10;;;;;;;16.17;14.75;;;9.80;99.90;;;;;;5032640;28;20064;-79
2024/01/03 03:48:37;;;;;;;16.48;14.98;;;9.80;99.90;;;;;;5038579;28;20048;-80
2024/01/03 03:51:04;;;;;;;15.05;13.63;;;9.80;99.90;;;;;;5017163;28;20098;-79
2024/01/03 03:53:31;;;;;;;15.45;13.88;;;9.80;99.90;;;;;;5032837;28;20069;-80
2024/01/03 03:55:58;;;;;;;15.23;13.90;;;9.70;99.90;;;;;;5030558;28;20953;-79
2024/01/03 03:58:25;;;;;;;16.00;14.82;;;9.70;99.90;;;;;;5028891;28;20037;-79
2024/01/03 04:00:51;;;;;;;14.27;13.15;;;9.60;99.90;;;;;;5027318;28;20080;-79
2024/01/03 04:03:18;;;;;;;14.07;13.18;;;9.60;99.90;;;;;;5037343;28;20049;-79
2024/01/03 04:05:45;;;;;;;15.50;13.20;;;9.60;99.90;;;;;;5021930;28;20124;-79
2024/01/03 04:08:12;;;;;;;11.43;10.57;;;9.50;99.90;;;;;;5031786;28;20135;-78
2024/01/03 04:10:40;;;;;;;9.23;7.70;;;9.30;99.90;;;;;;5032130;28;20072;-80
2024/01/03 04:13:08;;;;;;;11.77;7.38;;;9.10;99.90;;;;;;5033567;28;20048;-78
2024/01/03 04:15:34;;;;;;;11.02;6.57;;;8.90;99.90;;;;;;5018365;28;20486;-79
2024/01/03 04:18:04;;;;;;;15.30;6.47;;;8.90;99.90;;;;;;5042156;28;20732;-78
2024/01/03 04:20:31;;;;;;;8.82;6.05;;;8.90;99.90;;;;;;5043205;28;20049;-79
2024/01/03 04:23:01;;;;;;;16.55;6.65;;;8.90;99.90;;;;;;5057672;28;20041;-80
2024/01/03 04:25:28;;;;;;;7.25;6.47;;;8.90;99.90;;;;;;5050578;28;20508;-80
2024/01/03 04:27:55;;;;;;;10.43;6.55;;;9.00;99.90;;;;;;5040076;28;20049;-78
2024/01/03 04:30:21;;;;;;;8.25;7.28;;;9.00;99.90;;;;;;5031037;28;20046;-79
2024/01/03 04:32:48;;;;;;;11.88;8.68;;;9.10;99.90;;;;;;5023677;28;20198;-79
2024/01/03 04:35:15;;;;;;;9.98;9.18;;;9.20;99.90;;;;;;5029995;28;20061;-81
2024/01/03 04:37:42;;;;;;;11.90;9.07;;;9.20;99.90;;;;;;5032181;28;20544;-80
2024/01/03 04:40:10;;;;;;;10.95;9.88;;;9.20;99.90;;;;;;5040604;28;20044;-80
2024/01/03 04:42:36;;;;;;;11.13;10.13;;;9.30;99.90;;;;;;5030729;28;20282;-79
2024/01/03 04:45:04;;;;;;;12.88;11.38;;;9.40;99.90;;;;;;5013769;28;20053;-80
2024/01/03 04:47:32;;;;;;;12.18;11.15;;;9.50;99.90;;;;;;4999651;28;20045;-80
2024/01/03 04:49:59;;;;;;;12.80;11.75;;;9.50;99.90;;;;;;5056895;28;20141;-80
2024/01/03 04:52:26;;;;;;;12.93;11.60;;;9.50;99.90;;;;;;5018639;28;20102;-79
2024/01/03 04:54:53;;;;;;;11.63;10.52;;;9.50;99.90;;;;;;5034622;28;20037;-80
2024/01/03 04:57:20;;;;;;;13.32;10.90;;;9.50;99.90;;;;;;5003757;28;20044;-80
2024/01/03 04:59:47;;;;;;;10.50;9.70;;;9.40;99.90;;;;;;5002630;28;20149;-78
2024/01/03 05:02:14;;;;;;;12.70;10.35;;;9.30;99.90;;;;;;5041477;28;20052;-79
2024/01/03 05:04:41;;;;;;;10.45;9.38;;;9.30;99.90;;;;;;5025489;28;20056;-80
2024/01/03 05:07:08;;;;;;;10.20;7.10;;;9.20;99.90;;;;;;5014849;28;20576;-80
2024/01/03 05:09:34;;;;;;;11.48;6.30;;;8.90;99.90;;;;;;5035134;28;20055;-79
2024/01/03 05:12:04;;;;;;;14.82;5.72;;;8.80;99.90;;;;;;5044058;28;20037;-78
2024/01/03 05:14:32;;;;;;;6.78;4.72;;;8.70;99.90;;;;;;5025932;28;20602;-79
2024/01/03 05:16:59;;;;;;;11.82;3.83;;;8.60;99.90;;;;;;5012678;28;20772;-78
2024/01/03 05:19:26;;;;;;;10.18;4.53;;;8.50;99.90;;;;;;5040074;28;20053;-79
2024/01/03 05:21:53;;;;;;;10.18;3.83;;;8.50;99.90;;;;;;5004181;28;20140;-79
2024/01/03 05:24:20;;;;;;;10.25;4.03;;;8.60;99.90;;;;;;5023852;28;20045;-78
2024/01/03 05:26:47;;;;;;;12.55;4.20;;;8.50;99.90;;;;;;5033186;28;20532;-79
2024/01/03 05:29:14;;;;;;;17.63;5.00;;;8.50;99.90;;;;;;5035660;28;20037;-78
2024/01/03 05:31:41;;;;;;;16.30;5.85;;;8.60;99.90;;;;;;5035604;28;20053;-77
2024/01/03 05:34:09;;;;;;;12.05;5.82;;;8.70;99.90;;;;;;5010449;28;20698;-78
2024/01/03 05:36:36;;;;;;;19.80;8.90;;;8.80;99.90;;;;;;5029798;28;20538;-77
2024/01/03 05:39:02;;;;;;;13.43;7.60;;;8.90;99.90;;;;;;5047040;28;20083;-78
2024/01/03 05:41:29;;;;;;;12.07;8.40;;;9.00;99.90;;;;;;5013485;28;20045;-80
2024/01/03 05:43:56;;;;;;;13.63;9.73;;;9.00;99.90;;;;;;5026367;28;20041;-77
2024/01/03 05:46:23;;;;;;;9.85;8.85;;;9.10;99.90;;;;;;5029901;28;20037;-77
2024/01/03 05:48:50;;;;;;;10.70;9.80;;;9.20;99.90;;;;;;5007988;28;20500;-78
2024/01/03 05:51:17;;;;;;;12.52;11.30;;;9.30;99.90;;;;;;5047959;28;20044;-77
2024/01/03 05:53:47;;;;;;;12.25;11.23;;;9.30;99.90;;;;;;5031438;28;20044;-78
2024/01/03 05:56:15;;;;;;;12.10;10.88;;;9.40;99.90;;;;;;5028673;28;20041;-77
2024/01/03 05:58:43;;;;;;;13.77;11.70;;;9.50;99.90;;;;;;5034762;28;21021;-77
2024/01/03 06:01:10;;;;;;;13.45;12.45;;;9.50;99.90;;;;;;5012677;28;20616;-79
2024/01/03 06:03:37;;;;;;;15.27;12.50;;;9.50;99.90;;;;;;5021875;28;20086;-77
2024/01/03 06:06:04;;;;;;;13.18;11.82;;;9.50;99.90;;;;;;4987540;28;20041;-78
2024/01/03 06:08:32;;;;;;;12.90;11.70;;;9.50;99.90;;;;;;5035921;28;20155;-77
2024/01/03 06:10:59;;;;;;;14.25;12.75;;;9.50;99.90;;;;;;5030527;28;20077;-77
2024/01/03 06:13:25;;;;;;;13.60;12.45;;;9.50;99.90;;;;;;5038335;28;20044;-76
2024/01/03 06:15:52;;;;;;;12.30;11.18;;;9.50;99.90;;;;;;5033534;28;20053;-77
2024/01/03 06:18:21;;;;;;;13.45;12.35;;;9.50;99.90;;;;;;5035128;28;20044;-77
2024/01/03 06:20:48;;;;;;;14.07;11.10;;;9.50;99.90;;;;;;5029738;28;20057;-77
2024/01/03 06:23:14;;;;;;;12.98;11.98;;;9.40;99.90;;;;;;5019496;28;20080;-78
2024/01/03 06:25:41;;;;;;;13.82;11.73;;;9.40;99.90;;;;;;5015614;28;20553;-77
2024/01/03 06:28:08;;;;;;;13.10;11.65;;;9.50;99.90;;;;;;5026045;28;20049;-77
2024/01/03 06:30:35;;;;;;;17.10;11.90;;;9.50;99.90;;;;;;5029624;28;20042;-78
2024/01/03 06:33:02;;;;;;;13.38;12.05;;;9.50;99.90;;;;;;5028239;28;20045;-78
2024/01/03 06:35:30;;;;;;;15.82;12.65;;;9.60;99.90;;;;;;5034000;28;20050;-77
2024/01/03 06:37:57;;;;;;;13.50;12.40;;;9.50;99.90;;;;;;5029910;28;20771;-77
2024/01/03 06:40:23;;;;;;;18.67;14.95;;;9.50;99.90;;;;;;5032149;28;20060;-77
2024/01/03 06:42:50;;;;;;;13.57;12.20;;;9.60;99.90;;;;;;5033351;28;20094;-77
2024/01/03 06:45:17;;;;;;;13.68;12.43;;;9.60;99.90;;;;;;5030986;28;20132;-77
2024/01/03 06:47:44;;;;;;;12.80;12.00;;;9.50;99.90;;;;;;5039332;28;20087;-77
2024/01/03 06:50:13;;;;;;;15.52;13.98;;;9.60;99.90;;;;;;5037138;28;20591;-77
2024/01/03 06:52:39;;;;;;;15.15;13.07;;;9.60;99.90;;;;;;5032250;28;20044;-79
2024/01/03 06:55:07;;;;;;;13.35;12.10;;;9.60;99.90;;;;;;5011337;28;20041;-77
2024/01/03 06:57:33;;;;;;;13.77;12.35;;;9.60;99.90;;;;;;5014935;28;20037;-77
2024/01/03 07:00:00;;;;;;;13.52;12.40;;;9.60;99.90;;;;;;5034398;28;20061;-78
2024/01/03 07:02:27;;;;;;;13.93;12.73;;;9.60;99.90;;;;;;5032062;28;20071;-77
2024/01/03 07:04:54;;;;;;;12.57;11.40;;;9.60;99.90;;;;;;5022683;28;20064;-77
2024/01/03 07:07:21;;;;;;;12.57;11.65;;;9.60;99.90;;;;;;5035882;28;20437;-77
2024/01/03 07:09:48;;;;;;;13.63;11.50;;;9.50;99.90;;;;;;5018401;28;20084;-78
2024/01/03 07:12:18;;;;;;;12.98;11.73;;;9.50;99.90;;;;;;5003830;28;20071;-77
2024/01/03 07:14:45;;;;;;;13.52;12.25;;;9.50;99.90;;;;;;4990221;28;20481;-77
2024/01/03 07:17:14;;;;;;;12.68;11.73;;;9.50;99.90;;;;;;5007118;28;20049;-79
2024/01/03 07:19:41;;;;;;;12.45;11.70;;;9.40;99.90;;;;;;5019952;28;20049;-78
2024/01/03 07:22:08;;;;;;;13.45;12.25;;;9.50;99.90;;;;;;5034047;28;20044;-77
2024/01/03 07:24:38;;;;;;;12.32;11.43;;;9.50;99.90;;;;;;5028540;28;20110;-79
2024/01/03 07:27:05;;;;;;;12.63;11.70;;;9.50;99.90;;;;;;5031124;28;20431;-78
2024/01/03 07:29:32;;;;;;;13.23;12.32;;;9.50;99.90;;;;;;5040885;28;20052;-78
2024/01/03 07:31:59;;;;;;;14.80;13.50;;;9.50;99.90;;;;;;5040642;28;20053;-78
2024/01/03 07:34:26;;;;;;;13.32;12.43;;;9.60;99.90;;;;;;5056661;28;20049;-78
2024/01/03 07:36:54;;;;;;;13.30;12.43;;;9.60;99.90;;;;;;5032047;28;20045;-77
2024/01/03 07:39:21;;;;;;;14.10;13.00;;;9.60;99.90;;;;;;5030956;28;20138;-76
2024/01/03 07:41:48;;;;;;;13.52;12.63;;;9.50;99.90;;;;;;5023873;28;20068;-84
2024/01/03 07:44:16;;;;;;;14.07;12.82;;;9.50;99.90;;;;;;5013753;28;20045;-78
2024/01/03 07:46:43;;;;;;;14.85;13.75;;;9.50;99.90;;;;;;5021685;28;20133;-77
2024/01/03 07:49:10;;;;;;;13.57;12.85;;;9.50;99.90;;;;;;5013543;28;20037;-77
2024/01/03 07:51:38;;;;;;;13.15;12.40;;;9.50;99.90;;;;;;5037028;28;20047;-77
2024/01/03 07:54:09;;;;;;;12.48;11.77;;;9.50;99.90;;;;;;5032263;28;20052;-76
2024/01/03 07:56:36;;;;;;;13.02;12.13;;;9.40;99.90;;;;;;5034154;28;20049;-77
2024/01/03 07:59:03;;;;;;;11.63;10.93;;;9.40;99.90;;;;;;5050902;28;20044;-77
2024/01/03 08:01:30;;;;;;;13.10;12.40;;;9.30;99.90;;;;;;5074071;28;20071;-77
2024/01/03 08:03:56;;;;;;;11.63;10.82;;;9.30;99.90;;;;;;5055438;28;21108;-77
2024/01/03 08:06:23;;;;;;;11.27;10.57;;;9.30;99.90;;;;;;5036302;28;20556;-76
2024/01/03 08:08:50;;;;;;;9.90;9.40;;;9.30;99.90;;;;;;5012141;28;20051;-77
2024/01/03 08:11:17;;;;;;;10.65;9.63;;;9.20;99.90;;;;;;5027068;28;21165;-77
2024/01/03 08:13:44;;;;;;;10.05;9.35;;;9.20;99.90;;;;;;5035488;28;20049;-77
2024/01/03 08:16:11;;;;;;;10.20;9.40;;;9.10;99.90;;;;;;5033892;28;20106;-78
2024/01/03 08:18:39;;;;;;;9.35;8.85;;;9.00;99.90;;;;;;5066019;28;20076;-78
2024/01/03 08:21:06;;;;;;;9.65;9.05;;;9.00;99.90;;;;;;5049493;28;20106;-77
2024/01/03 08:23:33;;;;;;;8.73;8.13;;;9.00;99.90;;;;;;5035764;28;20139;-78
2024/01/03 08:26:06;;;;;;;12.60;11.73;;;8.90;99.90;;;;;;5030162;28;20120;-77
2024/01/03 08:28:36;;;;;;;11.30;10.52;;;8.90;99.90;;;;;;5036470;28;20052;-77
2024/01/03 08:31:03;;;;;;;10.68;9.82;;;8.90;99.90;;;;;;5031117;28;20061;-78
2024/01/03 08:33:34;;;;;;;8.63;8.10;;;8.90;99.90;;;;;;5023250;28;20041;-78
2024/01/03 08:36:02;;;;;;;7.88;7.18;;;8.80;99.90;;;;;;5039930;28;20041;-79
2024/01/03 08:38:29;;;;;;;9.65;8.20;;;8.80;99.90;;;;;;5035858;28;20049;-79
2024/01/03 08:40:56;;;;;;;7.50;6.80;;;8.80;99.90;;;;;;5023521;28;20045;-81
2024/01/03 08:43:23;;;;;;;7.95;7.20;;;8.70;99.90;;;;;;5046212;28;20629;-81
2024/01/03 08:45:49;;;;;;;7.05;6.55;;;8.70;99.90;;;;;;5038367;28;20041;-80
2024/01/03 08:48:16;;;;;;;8.85;8.23;;;8.80;99.90;;;;;;5038674;28;20044;-78
2024/01/03 08:50:43;;;;;;;10.73;9.10;;;8.80;99.90;;;;;;5039487;28;20037;-79
2024/01/03 08:53:11;;;;;;;9.32;8.48;;;8.90;99.90;;;;;;5039276;28;20048;-81
2024/01/03 08:55:37;;;;;;;9.57;8.77;;;8.90;99.90;;;;;;5039893;28;20037;-81
2024/01/03 08:58:04;;;;;;;10.98;9.98;;;9.00;99.90;;;;;;5039395;28;20045;-79
2024/01/03 09:00:31;;;;;;;10.82;10.10;;;9.00;99.90;;;;;;5039508;28;20057;-79
2024/01/03 09:03:00;;;;;;;14.68;11.55;;;9.10;99.90;;;;;;5039755;28;20053;-79
2024/01/03 09:05:27;;;;;;;12.88;11.38;;;9.20;99.90;;;;;;5032856;28;20056;-80
2024/01/03 09:07:54;;;;;;;13.88;12.80;;;9.20;99.90;;;;;;5044804;28;20607;-80
2024/01/03 09:10:21;;;;;;;13.57;12.55;;;9.30;99.90;;;;;;5041159;28;20076;-77
2024/01/03 09:12:48;;;;;;;16.77;14.45;;;9.40;99.90;;;;;;5018260;28;20045;-78
2024/01/03 09:15:15;;;;;;;17.27;13.98;;;9.40;99.90;;;;;;5019577;28;20547;-79
2024/01/03 09:17:43;;;;;;;15.18;13.77;;;9.50;99.90;;;;;;5027835;28;20045;-79
2024/01/03 09:20:11;;;;;;;15.57;14.43;;;9.50;99.90;;;;;;5028709;28;20041;-80
2024/01/03 09:22:38;;;;;;;17.42;15.85;;;9.50;99.90;;;;;;5021929;28;20049;-81
2024/01/03 09:25:05;;;;;;;17.73;15.05;;;9.50;99.90;;;;;;5008613;28;20044;-79
2024/01/03 09:27:32;;;;;;;16.38;14.65;;;9.50;99.90;;;;;;5040022;28;20156;-79
2024/01/03 09:29:59;;;;;;;15.82;14.32;;;9.50;99.90;;;;;;5034352;28;20103;-81
2024/01/03 09:32:26;;;;;;;16.48;15.07;;;9.50;99.90;;;;;;5054774;28;20044;-80
2024/01/03 09:34:53;;;;;;;17.35;15.57;;;9.50;99.90;;;;;;5038506;28;20601;-79
2024/01/03 09:37:20;;;;;;;16.50;14.85;;;9.50;99.90;;;;;;5034762;28;21303;-80
2024/01/03 09:39:47;;;;;;;16.90;15.23;;;9.50;99.90;;;;;;5038439;28;20053;-80
2024/01/03 09:42:15;;;;;;;14.05;12.88;;;9.40;99.90;;;;;;5017743;28;20045;-81
2024/01/03 09:44:42;;;;;;;13.65;12.45;;;9.30;99.90;;;;;;5021911;28;20112;-80
2024/01/03 09:47:10;;;;;;;16.02;14.77;;;9.30;99.90;;;;;;5033534;28;20624;-85
2024/01/03 09:49:37;;;;;;;13.38;12.48;;;9.30;99.90;;;;;;5011005;28;20029;-84
2024/01/03 09:52:07;;;;;;;14.45;13.65;;;9.30;99.90;;;;;;5002374;28;20033;-83
2024/01/03 09:54:34;;;;;;;13.57;12.45;;;9.30;99.90;;;;;;5051206;28;20723;-81
2024/01/03 09:57:01;;;;;;;12.20;11.38;;;9.20;99.90;;;;;;5039860;28;20598;-83
2024/01/03 09:59:28;;;;;;;10.85;9.75;;;9.20;99.90;;;;;;5016906;28;20057;-81
2024/01/03 10:01:58;;;;;;;8.43;6.32;;;9.00;99.90;;;;;;5032868;28;20041;-79
2024/01/03 10:04:26;;;;;;;8.75;8.15;;;8.80;99.90;;;;;;5032515;28;20801;-80
2024/01/03 10:06:57;;;;;;;8.55;8.07;;;8.70;99.90;;;;;;5038366;28;20673;-82
2024/01/03 10:09:39;;;;;;;8.20;7.50;;;8.60;99.90;;;;;;5042868;28;20048;-81
2024/01/03 10:12:15;;;;;;;7.78;7.15;;;8.50;99.90;;;;;;5036034;28;20064;-81
2024/01/03 10:14:42;;;;;;;7.88;7.30;;;8.50;99.90;;;;;;5015947;28;20037;-81
2024/01/03 10:17:09;;;;;;;7.38;6.97;;;8.40;99.90;;;;;;5032641;28;20047;-81
2024/01/03 10:19:36;;;;;;;7.05;6.28;;;8.40;99.90;;;;;;5040424;28;20051;-80
2024/01/03 10:22:04;;;;;;;7.10;6.43;;;8.30;99.90;;;;;;5025089;28;20033;-82
2024/01/03 10:24:33;;;;;;;7.45;6.15;;;8.30;99.90;;;;;;5040724;28;20055;-80
2024/01/03 10:27:10;;;;;;;7.35;5.47;;;8.30;99.90;;;;;;5043916;28;20496;-81
2024/01/03 10:29:38;;;;;;;7.85;7.07;;;8.20;99.90;;;;;;5035677;28;20044;-80
2024/01/03 10:32:09;;;;;;;8.85;4.75;;;8.20;99.90;;;;;;5053184;28;20082;-82
2024/01/03 10:34:37;;;;;;;6.38;5.28;;;8.30;99.90;;;;;;5046483;28;20052;-78
2024/01/03 10:37:04;;;;;;;7.97;4.22;;;8.20;99.90;;;;;;5039798;28;20120;-77
2024/01/03 10:39:33;;;;;;;6.70;4.53;;;8.30;99.90;;;;;;5033745;28;20111;-78
2024/01/03 10:42:05;;;;;;;10.10;4.10;;;8.20;99.90;;;;;;5035577;28;20505;-79
2024/01/03 10:44:34;;;;;;;8.25;3.95;;;8.30;99.90;;;;;;5032618;28;20053;-79
2024/01/03 10:47:01;;;;;;;7.60;4.30;;;8.30;99.90;;;;;;5003984;28;20164;-79
2024/01/03 10:49:28;;;;;;;8.25;3.85;;;8.30;99.90;;;;;;5029335;28;20052;-78
2024/01/03 10:52:02;;;;;;;12.00;3.72;;;8.30;99.90;;;;;;5025920;28;20046;-79
2024/01/03 10:54:38;;;;;;;;;;;8.30;99.90;;;;;;5005602;28;20053;-79
2024/01/03 10:57:05;;;;;;;18.08;5.63;;;8.30;99.90;;;;;;5031657;28;20002;-79
2024/01/03 10:59:39;;;;;;;11.18;4.63;;;8.40;99.90;;;;;;5015893;28;20538;-79
2024/01/03 11:02:17;;;;;;;12.93;3.85;;;8.40;99.90;;;;;;5031551;28;20045;-79
2024/01/03 11:04:55;;;;;;;11.88;3.88;;;8.40;99.90;;;;;;5013308;28;20055;-80
2024/01/03 11:07:39;;;;;;;8.80;4.10;;;8.50;99.90;;;;;;5030019;28;20041;-77
2024/01/03 11:10:06;;;;;;;10.30;4.93;;;8.50;99.90;;;;;;5031338;28;20045;-78
2024/01/03 11:12:33;;;;;;;8.27;4.75;;;8.60;99.90;;;;;;5020229;28;20079;-82
2024/01/03 11:15:25;;;;;;;11.68;5.25;;;8.50;99.90;;;;;;5037682;28;20780;-80
2024/01/03 11:18:10;;;;;;;13.07;5.32;;;8.50;99.90;;;;;;5026894;28;20052;-80
2024/01/03 11:20:37;;;;;;;13.82;3.97;;;8.50;99.90;;;;;;5015987;28;20076;-78
2024/01/03 11:23:05;;;;;;;22.27;4.43;;;8.50;99.90;;;;;;5033322;28;20478;-80
2024/01/03 11:25:49;;;;;;;10.52;3.70;;;8.50;99.90;;;;;;4997552;28;20632;-82
2024/01/03 11:28:37;;;;;;;11.40;3.42;;;8.50;99.90;;;;;;5032683;28;20068;-78
2024/01/03 11:31:06;;;;;;;17.52;5.53;;;8.50;99.90;;;;;;5003214;28;20042;-80
2024/01/03 11:33:38;;;;;;;14.10;5.68;;;8.50;99.90;;;;;;5024739;28;20055;-79
2024/01/03 11:36:07;;;;;;;14.82;5.80;;;8.50;99.90;;;;;;5041716;28;20052;-79
2024/01/03 11:38:44;;;;;;;14.25;5.57;;;8.50;99.90;;;;;;5038979;28;20060;-79
2024/01/03 11:41:17;;;;;;;21.40;5.63;;;8.50;99.90;;;;;;5041041;28;20500;-80
2024/01/03 11:43:47;;;;;;;9.35;4.30;;;8.50;99.90;;;;;;5049972;28;20071;-81
2024/01/03 11:46:15;;;;;;;7.25;4.05;;;8.60;99.90;;;;;;5051892;28;20040;-79
2024/01/03 11:48:45;;;;;;;10.77;4.63;;;8.60;99.90;;;;;;5041731;28;20041;-78
2024/01/03 11:51:24;;;;;;;14.60;4.65;;;8.80;99.90;;;;;;5030529;28;20620;-80
2024/01/03 11:53:51;;;;;;;20.45;7.50;;;9.00;99.90;;;;;;5033475;28;20553;-79
2024/01/03 11:56:31;;;;;;;16.25;7.53;;;9.00;99.90;;;;;;5041353;28;20670;-80
2024/01/03 11:58:59;;;;;;;19.23;8.65;;;9.20;99.90;;;;;;5023684;28;20045;-78
2024/01/03 12:01:26;;;;;;;13.02;7.88;;;9.30;99.90;;;;;;5031388;28;20033;-79
2024/01/03 12:04:12;;;;;;;12.63;11.10;;;9.50;99.90;;;;;;5024562;28;20152;-80
2024/01/03 12:06:40;;;;;;;13.98;12.35;;;9.60;99.90;;;;;;5032848;28;20502;-79
2024/01/03 12:09:07;;;;;;;13.25;12.23;;;9.70;99.90;;;;;;5042827;28;20128;-79
2024/01/03 12:11:35;;;;;;;14.43;12.95;;;9.80;99.90;;;;;;5034791;28;20041;-79
2024/01/03 12:14:02;;;;;;;15.95;14.48;;;9.90;99.90;;;;;;5031478;28;20600;-79
2024/01/03 12:16:29;;;;;;;17.02;15.48;;;10.00;99.90;;;;;;5018285;28;20055;-81
2024/01/03 12:18:56;;;;;;;19.92;17.65;;;10.00;99.90;;;;;;5035753;28;20703;-79
2024/01/03 12:21:23;;;;;;;24.00;22.02;;;10.00;99.90;;;;;;5040301;28;20045;-83
2024/01/03 12:23:59;;;;;;;26.50;24.52;;;9.90;99.90;;;;;;5049098;28;20045;-80
2024/01/03 12:26:26;;;;;;;24.13;22.48;;;9.90;99.90;;;;;;5041210;28;20036;-84
2024/01/03 12:29:01;;;;;;;22.85;20.77;;;9.90;99.90;;;;;;5041692;28;20036;-82
2024/01/03 12:31:28;;;;;;;22.98;21.13;;;9.90;99.90;;;;;;5046371;28;20128;-83
2024/01/03 12:34:04;;;;;;;24.23;22.02;;;9.80;99.90;;;;;;5036489;28;20053;-80
2024/01/03 12:36:32;;;;;;;24.90;22.63;;;9.80;99.90;;;;;;5054340;28;20747;-80
2024/01/03 12:38:59;;;;;;;24.65;22.70;;;9.70;99.90;;;;;;5049534;28;20041;-81
2024/01/03 12:41:26;;;;;;;25.67;23.80;;;9.70;99.90;;;;;;5040023;28;20083;-80
2024/01/03 12:43:52;;;;;;;30.75;28.15;;;9.70;99.90;;;;;;5054169;28;20056;-80
2024/01/03 12:46:19;;;;;;;28.80;26.60;;;9.70;99.90;;;;;;5032419;28;20056;-79